Time;durP1;ratioP1;P1;durP2;ratioP2;P2;SDS_P1;SDS_P2;PMS_P1;PMS_P2;Temp;Humidity;BMP_temperature;BMP_pressure;BME280_temperature;BME280_humidity;BME280_pressure;Samples;Min_cycle;Max_cycle;Signal;HPM_P1;HPM_P2
2023/08/09 00:00:32;;;;;;;0.70;0.70;;;17.30;99.90;;;;;;2090190;28;20025;-72
2023/08/09 00:01:33;;;;;;;0.50;0.50;;;17.30;99.90;;;;;;2090100;28;20384;-72
2023/08/09 00:02:33;;;;;;;0.65;0.65;;;17.20;99.90;;;;;;2090842;28;20048;-72
2023/08/09 00:03:34;;;;;;;1.65;0.90;;;17.20;99.90;;;;;;2093714;28;20507;-72
2023/08/09 00:04:34;;;;;;;1.60;0.90;;;17.20;99.90;;;;;;2093852;28;20040;-72
2023/08/09 00:05:35;;;;;;;1.98;0.90;;;17.20;99.90;;;;;;2090152;28;20480;-72
2023/08/09 00:06:36;;;;;;;1.83;0.50;;;17.20;99.90;;;;;;2091147;28;20033;-72
2023/08/09 00:07:36;;;;;;;0.82;0.80;;;17.10;99.90;;;;;;2090995;28;20029;-72
2023/08/09 00:08:37;;;;;;;0.70;0.70;;;17.10;99.90;;;;;;2090275;28;20083;-72
2023/08/09 00:09:37;;;;;;;0.45;0.45;;;17.10;99.90;;;;;;2090532;28;20107;-72
2023/08/09 00:10:38;;;;;;;0.60;0.60;;;17.10;99.90;;;;;;2089952;28;20112;-72
2023/08/09 00:11:38;;;;;;;0.60;0.60;;;17.10;99.90;;;;;;2089715;28;20492;-72
2023/08/09 00:12:39;;;;;;;0.43;0.43;;;17.10;99.90;;;;;;2090959;28;20021;-72
2023/08/09 00:13:39;;;;;;;1.75;0.50;;;17.10;99.90;;;;;;2089979;28;20025;-72
2023/08/09 00:14:40;;;;;;;0.60;0.35;;;17.10;99.90;;;;;;2091133;28;20864;-72
2023/08/09 00:15:40;;;;;;;0.85;0.50;;;17.10;99.90;;;;;;2090461;28;20028;-72
2023/08/09 00:16:41;;;;;;;1.85;0.68;;;17.10;99.90;;;;;;2089609;28;20361;-72
2023/08/09 00:17:42;;;;;;;0.60;0.60;;;17.10;99.90;;;;;;2089923;28;20385;-72
2023/08/09 00:18:42;;;;;;;0.63;0.50;;;17.10;99.90;;;;;;2090700;28;20064;-72
2023/08/09 00:19:43;;;;;;;16.23;0.95;;;17.10;99.90;;;;;;2090642;28;20029;-72
2023/08/09 00:20:43;;;;;;;0.45;0.45;;;17.00;99.90;;;;;;2089573;28;20143;-72
2023/08/09 00:21:44;;;;;;;0.60;0.60;;;17.00;99.90;;;;;;2089262;28;20039;-72
2023/08/09 00:22:44;;;;;;;1.10;0.60;;;17.00;99.90;;;;;;2089795;28;20029;-72
2023/08/09 00:23:45;;;;;;;0.95;0.68;;;17.10;99.90;;;;;;2088958;28;20364;-72
2023/08/09 00:24:45;;;;;;;0.88;0.82;;;17.10;99.90;;;;;;2091046;28;20025;-72
2023/08/09 00:25:46;;;;;;;0.60;0.60;;;17.00;99.90;;;;;;2091868;28;20025;-72
2023/08/09 00:26:47;;;;;;;0.70;0.70;;;17.00;99.90;;;;;;2093923;28;20024;-72
2023/08/09 00:27:47;;;;;;;0.80;0.80;;;17.00;99.90;;;;;;2090108;28;20022;-72
2023/08/09 00:28:48;;;;;;;0.50;0.50;;;17.00;99.90;;;;;;2089279;28;20024;-71
2023/08/09 00:29:49;;;;;;;0.68;0.68;;;17.00;99.90;;;;;;2090247;28;20060;-72
2023/08/09 00:30:49;;;;;;;0.80;0.80;;;17.00;99.90;;;;;;2090675;28;20587;-72
2023/08/09 00:31:50;;;;;;;0.60;0.60;;;17.00;99.90;;;;;;2090355;28;20032;-72
2023/08/09 00:32:50;;;;;;;0.70;0.70;;;16.90;99.90;;;;;;2091791;28;20065;-72
2023/08/09 00:33:51;;;;;;;2.28;0.70;;;17.00;99.90;;;;;;2089367;28;20021;-72
2023/08/09 00:34:51;;;;;;;0.70;0.40;;;16.90;99.90;;;;;;2089904;28;20055;-72
2023/08/09 00:35:52;;;;;;;0.73;0.73;;;16.90;99.90;;;;;;2091258;28;20024;-72
2023/08/09 00:36:53;;;;;;;0.65;0.60;;;16.90;99.90;;;;;;2090076;28;20056;-72
2023/08/09 00:37:53;;;;;;;0.70;0.70;;;16.90;99.90;;;;;;2089179;28;20094;-72
2023/08/09 00:38:54;;;;;;;0.70;0.70;;;16.90;99.90;;;;;;2089643;28;20036;-73
2023/08/09 00:39:55;;;;;;;0.63;0.63;;;16.90;99.90;;;;;;2088934;28;20029;-72
2023/08/09 00:40:56;;;;;;;0.63;0.60;;;16.90;99.90;;;;;;2089296;28;20356;-72
2023/08/09 00:41:56;;;;;;;0.55;0.55;;;16.90;99.90;;;;;;2089860;28;20060;-72
2023/08/09 00:42:57;;;;;;;0.85;0.80;;;16.90;99.90;;;;;;2089873;28;20029;-72
2023/08/09 00:43:58;;;;;;;0.70;0.70;;;16.90;99.90;;;;;;2090286;28;20032;-72
2023/08/09 00:44:58;;;;;;;0.75;0.70;;;16.90;99.90;;;;;;2090041;28;20106;-72
2023/08/09 00:45:59;;;;;;;0.93;0.93;;;16.90;99.90;;;;;;2088973;28;20369;-72
2023/08/09 00:47:00;;;;;;;0.70;0.70;;;16.90;99.90;;;;;;2089904;28;20079;-72
2023/08/09 00:48:01;;;;;;;0.90;0.90;;;16.90;99.90;;;;;;2091853;28;20032;-72
2023/08/09 00:49:01;;;;;;;0.70;0.70;;;16.90;99.90;;;;;;2091401;28;20104;-72
2023/08/09 00:50:03;;;;;;;0.85;0.85;;;16.90;99.90;;;;;;2089809;28;20437;-72
2023/08/09 00:51:04;;;;;;;1.83;0.63;;;16.90;99.90;;;;;;2091462;28;20025;-72
2023/08/09 00:52:05;;;;;;;0.68;0.68;;;16.90;99.90;;;;;;2091116;28;20085;-72
2023/08/09 00:53:06;;;;;;;0.80;0.80;;;16.90;99.90;;;;;;2091958;28;20116;-72
2023/08/09 00:54:06;;;;;;;0.70;0.70;;;16.90;99.90;;;;;;2081983;28;20027;-72
2023/08/09 00:55:07;;;;;;;1.55;0.63;;;16.90;99.90;;;;;;2087886;28;20033;-72
2023/08/09 00:56:08;;;;;;;1.17;1.08;;;17.00;99.90;;;;;;2090333;28;20021;-72
2023/08/09 00:57:09;;;;;;;0.88;0.88;;;16.90;99.90;;;;;;2092243;28;20016;-72
2023/08/09 00:58:09;;;;;;;0.60;0.60;;;17.00;99.90;;;;;;2093227;28;20040;-72
2023/08/09 00:59:10;;;;;;;0.68;0.68;;;16.90;99.90;;;;;;2090563;28;20102;-72
2023/08/09 01:00:14;;;;;;;0.40;0.40;;;17.00;99.90;;;;;;2090761;28;20029;-72
2023/08/09 01:01:15;;;;;;;0.50;0.50;;;17.00;99.90;;;;;;2090195;28;20503;-72
2023/08/09 01:02:15;;;;;;;0.52;0.52;;;17.00;99.90;;;;;;2091941;28;20475;-72
2023/08/09 01:03:16;;;;;;;0.57;0.57;;;17.00;99.90;;;;;;2091329;28;20028;-73
2023/08/09 01:04:17;;;;;;;0.60;0.60;;;17.00;99.90;;;;;;2090786;28;20036;-72
2023/08/09 01:05:18;;;;;;;0.68;0.68;;;17.00;99.90;;;;;;2089975;28;20089;-73
2023/08/09 01:06:27;;;;;;;0.80;0.68;;;17.00;99.90;;;;;;2089584;28;20021;-72
2023/08/09 01:07:36;;;;;;;0.70;0.70;;;17.00;99.90;;;;;;2088504;28;20032;-72
2023/08/09 01:08:53;;;;;;;0.80;0.63;;;17.00;99.90;;;;;;2088141;28;20028;-72
2023/08/09 01:10:02;;;;;;;1.30;0.65;;;17.00;99.90;;;;;;2090242;28;20434;-72
2023/08/09 01:11:16;;;;;;;1.08;0.80;;;17.00;99.90;;;;;;2089937;28;20040;-72
2023/08/09 01:12:24;;;;;;;0.77;0.77;;;17.00;99.90;;;;;;2089993;28;20066;-72
2023/08/09 01:13:25;;;;;;;0.85;0.85;;;17.00;99.90;;;;;;2089564;28;20032;-72
2023/08/09 01:14:28;;;;;;;0.70;0.70;;;16.90;99.90;;;;;;2093021;28;20108;-72
2023/08/09 01:15:33;;;;;;;0.80;0.80;;;17.00;99.90;;;;;;2090329;28;20625;-72
2023/08/09 01:16:36;;;;;;;0.75;0.75;;;17.00;99.90;;;;;;2091052;28;20458;-72
2023/08/09 01:17:37;;;;;;;0.82;0.82;;;17.00;99.90;;;;;;2090131;28;20392;-72
2023/08/09 01:18:41;;;;;;;1.02;1.02;;;17.00;99.90;;;;;;2090750;28;20028;-72
2023/08/09 01:19:49;;;;;;;1.23;1.13;;;17.00;99.90;;;;;;2090341;28;20027;-72
2023/08/09 01:20:50;;;;;;;1.20;1.20;;;17.00;99.90;;;;;;2089914;28;20025;-72
2023/08/09 01:21:52;;;;;;;0.90;0.90;;;17.00;99.90;;;;;;2087787;28;20024;-72
2023/08/09 01:23:04;;;;;;;2.33;1.15;;;17.00;99.90;;;;;;2081822;28;20477;-72
2023/08/09 01:24:06;;;;;;;0.82;0.82;;;17.00;99.90;;;;;;2086366;28;20041;-72
2023/08/09 01:25:08;;;;;;;0.90;0.90;;;17.00;99.90;;;;;;2088233;28;20032;-72
2023/08/09 01:26:10;;;;;;;0.90;0.90;;;17.00;99.90;;;;;;2091102;28;20029;-72
2023/08/09 01:27:11;;;;;;;0.93;0.93;;;17.00;99.90;;;;;;2090403;28;20023;-72
2023/08/09 01:28:15;;;;;;;1.35;1.00;;;17.00;99.90;;;;;;2090119;28;20040;-72
2023/08/09 01:29:16;;;;;;;0.80;0.80;;;17.00;99.90;;;;;;2091157;28;20033;-72
2023/08/09 01:30:16;;;;;;;0.77;0.77;;;17.00;99.90;;;;;;2092042;28;20040;-72
2023/08/09 01:31:17;;;;;;;0.93;0.93;;;17.00;99.90;;;;;;2090838;28;20029;-72
2023/08/09 01:32:18;;;;;;;0.85;0.85;;;17.00;99.90;;;;;;2089951;28;20021;-72
2023/08/09 01:33:18;;;;;;;1.55;1.10;;;17.10;99.90;;;;;;2090292;28;20483;-72
2023/08/09 01:34:19;;;;;;;0.80;0.80;;;17.10;99.90;;;;;;2090269;28;20167;-72
2023/08/09 01:35:20;;;;;;;1.10;1.10;;;17.10;99.90;;;;;;2090141;28;20464;-72
2023/08/09 01:36:30;;;;;;;0.80;0.77;;;17.10;99.90;;;;;;2090521;28;20021;-72
2023/08/09 01:37:37;;;;;;;1.00;1.00;;;17.10;99.90;;;;;;2089896;28;20056;-72
2023/08/09 01:38:48;;;;;;;1.10;1.10;;;17.10;99.90;;;;;;2089548;28;20035;-72
2023/08/09 01:39:52;;;;;;;1.80;1.00;;;17.10;99.90;;;;;;2089624;28;20124;-72
2023/08/09 01:40:53;;;;;;;1.10;1.10;;;17.10;99.90;;;;;;2091853;28;20024;-72
2023/08/09 01:41:57;;;;;;;1.27;1.20;;;17.10;99.90;;;;;;2091301;28;20107;-72
2023/08/09 01:42:58;;;;;;;1.00;1.00;;;17.10;99.90;;;;;;2090695;28;20035;-72
2023/08/09 01:43:58;;;;;;;1.10;1.00;;;17.10;99.90;;;;;;2091365;28;20038;-72
2023/08/09 01:45:02;;;;;;;1.33;1.00;;;17.10;99.90;;;;;;2089389;28;20029;-72
2023/08/09 01:46:03;;;;;;;0.73;0.73;;;17.10;99.90;;;;;;2088419;28;20044;-72
2023/08/09 01:47:05;;;;;;;0.90;0.90;;;17.10;99.90;;;;;;2089893;28;20373;-72
2023/08/09 01:48:05;;;;;;;0.77;0.77;;;17.10;99.90;;;;;;2090487;28;20040;-72
2023/08/09 01:49:11;;;;;;;0.80;0.68;;;17.10;99.90;;;;;;2091715;28;20057;-72
2023/08/09 01:50:23;;;;;;;0.60;0.60;;;17.10;99.90;;;;;;2089567;28;20452;-72
2023/08/09 01:51:23;;;;;;;2.75;0.60;;;17.10;99.90;;;;;;2090607;28;20472;-72
2023/08/09 01:52:24;;;;;;;0.77;0.77;;;17.10;99.90;;;;;;2090977;28;20372;-72
2023/08/09 01:53:24;;;;;;;0.52;0.52;;;17.10;99.90;;;;;;2090632;28;20032;-72
2023/08/09 01:54:25;;;;;;;0.68;0.68;;;17.10;99.90;;;;;;2089423;28;20108;-72
2023/08/09 01:55:26;;;;;;;0.50;0.50;;;17.10;99.90;;;;;;2090435;28;20020;-72
2023/08/09 01:56:27;;;;;;;0.50;0.50;;;17.10;99.90;;;;;;2089018;28;20514;-72
2023/08/09 01:57:27;;;;;;;0.70;0.60;;;17.10;99.90;;;;;;2089036;28;20384;-72
2023/08/09 01:58:28;;;;;;;0.68;0.63;;;17.10;99.90;;;;;;2089518;28;20032;-72
2023/08/09 01:59:29;;;;;;;0.50;0.50;;;17.10;99.90;;;;;;2089720;28;20048;-72
2023/08/09 02:00:29;;;;;;;1.15;0.55;;;17.10;99.90;;;;;;2091646;28;20012;-72
2023/08/09 02:01:31;;;;;;;0.63;0.60;;;17.10;99.90;;;;;;2090356;28;20108;-72
2023/08/09 02:02:31;;;;;;;0.68;0.68;;;17.10;99.90;;;;;;2090031;28;20658;-72
2023/08/09 02:03:32;;;;;;;0.60;0.57;;;17.10;99.90;;;;;;2090516;28;20052;-72
2023/08/09 02:04:32;;;;;;;0.50;0.50;;;17.10;99.90;;;;;;2089972;28;20147;-72
2023/08/09 02:05:33;;;;;;;0.32;0.32;;;17.10;99.90;;;;;;2088993;28;20491;-72
2023/08/09 02:06:34;;;;;;;3.50;0.60;;;17.10;99.90;;;;;;2091196;28;20036;-72
2023/08/09 02:07:34;;;;;;;2.25;0.50;;;17.10;99.90;;;;;;2088382;28;20439;-72
2023/08/09 02:08:35;;;;;;;0.57;0.57;;;17.10;99.90;;;;;;2089150;28;20032;-72
2023/08/09 02:09:35;;;;;;;0.80;0.80;;;17.10;99.90;;;;;;2089810;28;20032;-72
2023/08/09 02:10:36;;;;;;;1.15;0.90;;;17.10;99.90;;;;;;2090093;28;20052;-72
2023/08/09 02:11:37;;;;;;;1.40;1.27;;;17.20;99.90;;;;;;2090424;28;20490;-72
2023/08/09 02:12:38;;;;;;;0.95;0.90;;;17.20;99.90;;;;;;2089405;28;20025;-72
2023/08/09 02:13:39;;;;;;;2.15;1.27;;;17.10;99.90;;;;;;2090909;28;20024;-72
2023/08/09 02:14:40;;;;;;;1.38;1.27;;;17.10;99.90;;;;;;2090240;28;20033;-72
2023/08/09 02:15:40;;;;;;;1.15;1.15;;;17.20;99.90;;;;;;2089498;28;20067;-72
2023/08/09 02:16:41;;;;;;;1.20;1.20;;;17.20;99.90;;;;;;2089846;28;20029;-72
2023/08/09 02:17:43;;;;;;;1.23;1.23;;;17.10;99.90;;;;;;2090592;28;20051;-72
2023/08/09 02:18:44;;;;;;;2.30;2.10;;;17.10;99.90;;;;;;2091502;28;20356;-72
2023/08/09 02:19:45;;;;;;;2.58;1.98;;;17.10;99.90;;;;;;2088706;28;20036;-72
2023/08/09 02:20:45;;;;;;;2.28;2.08;;;17.10;99.90;;;;;;2089566;28;20859;-72
2023/08/09 02:21:46;;;;;;;2.15;2.00;;;17.10;99.90;;;;;;2088751;28;20112;-72
2023/08/09 02:22:48;;;;;;;1.85;1.75;;;17.10;99.90;;;;;;2089737;28;20017;-72
2023/08/09 02:23:49;;;;;;;1.73;1.60;;;17.10;99.90;;;;;;2088574;28;20111;-72
2023/08/09 02:24:50;;;;;;;2.10;2.00;;;17.10;99.90;;;;;;2086785;28;20024;-72
2023/08/09 02:25:53;;;;;;;2.30;2.15;;;17.10;99.90;;;;;;2089294;28;20052;-72
2023/08/09 02:26:53;;;;;;;3.05;2.05;;;17.10;99.90;;;;;;2090114;28;20405;-72
2023/08/09 02:27:54;;;;;;;1.88;1.67;;;17.10;99.90;;;;;;2089053;28;20227;-72
2023/08/09 02:28:54;;;;;;;3.08;2.05;;;17.10;99.90;;;;;;2090571;28;20028;-72
2023/08/09 02:29:55;;;;;;;2.67;2.47;;;17.10;99.90;;;;;;2089312;28;20036;-72
2023/08/09 02:30:56;;;;;;;2.13;2.03;;;17.10;99.90;;;;;;2089780;28;20033;-72
2023/08/09 02:31:57;;;;;;;2.65;2.45;;;17.10;99.90;;;;;;2089436;28;20094;-72
2023/08/09 02:32:57;;;;;;;2.70;2.50;;;17.10;99.90;;;;;;2089178;28;20036;-72
2023/08/09 02:33:58;;;;;;;3.05;2.85;;;17.10;99.90;;;;;;2087974;28;20496;-72
2023/08/09 02:35:00;;;;;;;2.92;1.90;;;17.00;99.90;;;;;;2089916;28;20029;-72
2023/08/09 02:36:02;;;;;;;2.45;2.25;;;17.10;99.90;;;;;;2090996;28;20039;-72
2023/08/09 02:37:04;;;;;;;2.20;2.10;;;17.00;99.90;;;;;;2091221;28;20013;-72
2023/08/09 02:38:04;;;;;;;2.53;2.33;;;17.00;99.90;;;;;;2089298;28;20032;-72
2023/08/09 02:39:05;;;;;;;2.55;2.35;;;17.00;99.90;;;;;;2089739;28;20031;-72
2023/08/09 02:40:06;;;;;;;3.05;2.70;;;17.00;99.90;;;;;;2089021;28;20029;-72
2023/08/09 02:41:07;;;;;;;7.13;2.60;;;17.00;99.90;;;;;;2090681;28;20379;-72
2023/08/09 02:42:07;;;;;;;2.45;1.95;;;17.00;99.90;;;;;;2090298;28;20025;-72
2023/08/09 02:43:08;;;;;;;2.80;2.58;;;17.00;99.90;;;;;;2088261;28;20099;-72
2023/08/09 02:44:09;;;;;;;2.15;2.03;;;17.00;99.90;;;;;;2090034;28;20108;-72
2023/08/09 02:45:10;;;;;;;2.88;2.67;;;17.00;99.90;;;;;;2088107;28;20472;-72
2023/08/09 02:46:12;;;;;;;3.13;2.83;;;16.90;99.90;;;;;;2089037;28;20436;-71
2023/08/09 02:47:13;;;;;;;6.90;2.70;;;17.00;99.90;;;;;;2088538;28;20543;-72
2023/08/09 02:48:13;;;;;;;2.85;2.65;;;16.90;99.90;;;;;;2088537;28;20509;-72
2023/08/09 02:49:14;;;;;;;2.33;2.20;;;17.00;99.90;;;;;;2088150;28;20055;-72
2023/08/09 02:50:14;;;;;;;3.10;2.90;;;17.00;99.90;;;;;;2091065;28;20107;-72
2023/08/09 02:51:15;;;;;;;3.28;3.08;;;16.90;99.90;;;;;;2089225;28;20087;-72
2023/08/09 02:52:15;;;;;;;3.88;3.47;;;16.90;99.90;;;;;;2089969;28;20412;-72
2023/08/09 02:53:19;;;;;;;2.75;2.58;;;16.90;99.90;;;;;;2090230;28;20057;-72
2023/08/09 02:54:20;;;;;;;3.60;3.08;;;16.90;99.90;;;;;;2090282;28;20052;-72
2023/08/09 02:55:20;;;;;;;6.53;3.65;;;16.90;99.90;;;;;;2090227;28;20058;-72
2023/08/09 02:56:21;;;;;;;3.53;3.22;;;16.90;99.90;;;;;;2089939;28;20082;-72
2023/08/09 02:57:22;;;;;;;3.63;3.13;;;16.90;99.90;;;;;;2088566;28;20494;-72
2023/08/09 02:58:22;;;;;;;5.60;3.17;;;16.90;99.90;;;;;;2091825;28;20458;-72
2023/08/09 02:59:23;;;;;;;3.63;3.33;;;16.90;99.90;;;;;;2093019;28;20055;-72
2023/08/09 03:00:23;;;;;;;3.45;2.92;;;16.80;99.90;;;;;;2098066;28;20558;-72
2023/08/09 03:01:24;;;;;;;3.30;2.97;;;16.90;99.90;;;;;;2098981;28;20032;-72
2023/08/09 03:02:25;;;;;;;3.50;3.20;;;16.80;99.90;;;;;;2090153;28;20025;-72
2023/08/09 03:03:25;;;;;;;4.07;2.85;;;16.80;99.90;;;;;;2089540;28;20046;-72
2023/08/09 03:04:26;;;;;;;2.92;2.67;;;16.80;99.90;;;;;;2089820;28;20028;-72
2023/08/09 03:05:27;;;;;;;3.08;2.88;;;16.80;99.90;;;;;;2088607;28;20070;-72
2023/08/09 03:06:28;;;;;;;3.05;2.80;;;16.80;99.90;;;;;;2089781;28;20072;-72
2023/08/09 03:07:28;;;;;;;3.65;3.45;;;16.80;99.90;;;;;;2091525;28;20017;-72
2023/08/09 03:08:29;;;;;;;2.92;2.72;;;16.80;99.90;;;;;;2089039;28;20029;-72
2023/08/09 03:09:29;;;;;;;3.33;3.08;;;16.80;99.90;;;;;;2089630;28;20036;-72
2023/08/09 03:10:30;;;;;;;2.88;2.58;;;16.70;99.90;;;;;;2092001;28;20048;-72
2023/08/09 03:11:31;;;;;;;3.53;3.33;;;16.70;99.90;;;;;;2088591;28;20104;-72
2023/08/09 03:12:31;;;;;;;4.63;4.32;;;16.70;99.90;;;;;;2088011;28;20021;-72
2023/08/09 03:13:32;;;;;;;4.47;4.13;;;16.70;99.90;;;;;;2088790;28;20052;-72
2023/08/09 03:14:33;;;;;;;4.78;4.47;;;16.70;99.90;;;;;;2088692;28;20039;-72
2023/08/09 03:15:34;;;;;;;4.00;3.70;;;16.70;99.90;;;;;;2088203;28;20021;-72
2023/08/09 03:16:35;;;;;;;4.10;3.70;;;16.70;99.90;;;;;;2093482;28;20027;-72
2023/08/09 03:17:36;;;;;;;3.95;3.70;;;16.70;99.90;;;;;;2092629;28;20017;-72
2023/08/09 03:18:36;;;;;;;6.32;5.65;;;16.70;99.90;;;;;;2090084;28;20036;-72
2023/08/09 03:19:37;;;;;;;4.85;4.47;;;16.70;99.90;;;;;;2091814;28;20054;-72
2023/08/09 03:20:37;;;;;;;5.85;5.30;;;16.70;99.90;;;;;;2089670;28;20369;-72
2023/08/09 03:21:38;;;;;;;4.82;4.50;;;16.70;99.90;;;;;;2091610;28;20039;-72
2023/08/09 03:22:40;;;;;;;5.60;5.20;;;16.70;99.90;;;;;;2090058;28;20031;-72
2023/08/09 03:23:40;;;;;;;5.78;5.38;;;16.70;99.90;;;;;;2088081;28;20071;-72
2023/08/09 03:24:41;;;;;;;4.80;4.50;;;16.60;99.90;;;;;;2088230;28;20025;-72
2023/08/09 03:25:41;;;;;;;5.00;4.60;;;16.60;99.90;;;;;;2088212;28;20416;-72
2023/08/09 03:26:42;;;;;;;4.28;3.97;;;16.70;99.90;;;;;;2088918;28;20376;-72
2023/08/09 03:27:43;;;;;;;5.13;4.72;;;16.70;99.90;;;;;;2090068;28;20028;-72
2023/08/09 03:28:43;;;;;;;5.63;5.22;;;16.60;99.90;;;;;;2089938;28;20537;-72
2023/08/09 03:29:44;;;;;;;4.80;4.40;;;16.60;99.90;;;;;;2089494;28;20043;-72
2023/08/09 03:30:44;;;;;;;5.25;4.85;;;16.70;99.90;;;;;;2089502;28;20070;-72
2023/08/09 03:31:45;;;;;;;6.20;5.70;;;16.60;99.90;;;;;;2089289;28;20029;-72
2023/08/09 03:32:45;;;;;;;9.10;8.23;;;16.70;99.90;;;;;;2090168;28;21283;-72
2023/08/09 03:33:46;;;;;;;7.35;6.75;;;16.60;99.90;;;;;;2090741;28;20021;-72
2023/08/09 03:34:46;;;;;;;8.50;7.72;;;16.60;99.90;;;;;;2090556;28;20036;-72
2023/08/09 03:35:47;;;;;;;8.10;7.40;;;16.60;99.90;;;;;;2090588;28;20079;-72
2023/08/09 03:36:48;;;;;;;8.68;7.97;;;16.60;99.90;;;;;;2093265;28;20070;-72
2023/08/09 03:37:49;;;;;;;7.50;6.90;;;16.60;99.90;;;;;;2094368;28;20461;-72
2023/08/09 03:38:50;;;;;;;7.43;6.82;;;16.60;99.90;;;;;;2090615;28;20047;-72
2023/08/09 03:39:50;;;;;;;8.35;7.75;;;16.60;99.90;;;;;;2089774;28;20099;-72
2023/08/09 03:40:51;;;;;;;7.85;7.18;;;16.60;99.90;;;;;;2092917;28;20025;-72
2023/08/09 03:41:52;;;;;;;9.27;8.48;;;16.60;99.90;;;;;;2092492;28;20126;-72
2023/08/09 03:42:52;;;;;;;8.48;7.75;;;16.60;99.90;;;;;;2090572;28;20025;-72
2023/08/09 03:43:53;;;;;;;6.78;6.28;;;16.60;99.90;;;;;;2091008;28;20029;-72
2023/08/09 03:44:54;;;;;;;5.88;5.47;;;16.60;99.90;;;;;;2089965;28;20078;-72
2023/08/09 03:45:54;;;;;;;8.48;7.60;;;16.60;99.90;;;;;;2089753;28;20128;-72
2023/08/09 03:46:56;;;;;;;8.57;7.78;;;16.60;99.90;;;;;;2089860;28;20369;-72
2023/08/09 03:47:56;;;;;;;9.80;8.93;;;16.60;99.90;;;;;;2092122;28;20021;-72
2023/08/09 03:48:57;;;;;;;12.18;10.98;;;16.60;99.90;;;;;;2090874;28;20028;-72
2023/08/09 03:49:57;;;;;;;11.95;10.90;;;16.60;99.90;;;;;;2090996;28;20025;-72
2023/08/09 03:50:58;;;;;;;15.43;13.93;;;16.60;99.90;;;;;;2090566;28;20473;-72
2023/08/09 03:51:59;;;;;;;14.88;13.48;;;16.60;99.90;;;;;;2092188;28;20552;-72
2023/08/09 03:53:00;;;;;;;14.50;13.10;;;16.60;99.90;;;;;;2090164;28;20066;-72
2023/08/09 03:54:00;;;;;;;15.40;13.90;;;16.60;99.90;;;;;;2091885;28;20047;-72
2023/08/09 03:55:01;;;;;;;16.42;14.93;;;16.60;99.90;;;;;;2091485;28;20036;-72
2023/08/09 03:56:01;;;;;;;16.48;14.82;;;16.60;99.90;;;;;;2090230;28;20029;-72
2023/08/09 03:57:02;;;;;;;17.17;15.50;;;16.60;99.90;;;;;;2091131;28;20104;-72
2023/08/09 03:58:02;;;;;;;14.32;13.00;;;16.60;99.90;;;;;;2091681;28;20017;-72
2023/08/09 03:59:03;;;;;;;17.92;16.13;;;16.60;99.90;;;;;;2091574;28;20024;-72
2023/08/09 04:00:04;;;;;;;14.82;13.35;;;16.60;99.90;;;;;;2089240;28;20104;-72
2023/08/09 04:01:06;;;;;;;17.00;15.32;;;16.50;99.90;;;;;;2090112;28;20029;-72
2023/08/09 04:02:07;;;;;;;15.02;13.60;;;16.50;99.90;;;;;;2090361;28;20009;-72
2023/08/09 04:03:07;;;;;;;15.32;13.85;;;16.50;99.90;;;;;;2091106;28;20140;-72
2023/08/09 04:04:08;;;;;;;16.42;14.82;;;16.50;99.90;;;;;;2092987;28;20086;-72
2023/08/09 04:05:08;;;;;;;15.25;13.77;;;16.50;99.90;;;;;;2089378;28;20024;-72
2023/08/09 04:06:11;;;;;;;15.07;13.57;;;16.50;99.90;;;;;;2091081;28;20037;-72
2023/08/09 04:07:11;;;;;;;13.25;11.98;;;16.50;99.90;;;;;;2090979;28;20115;-72
2023/08/09 04:08:12;;;;;;;14.60;13.10;;;16.50;99.90;;;;;;2089598;28;20021;-72
2023/08/09 04:09:12;;;;;;;18.58;16.45;;;16.50;99.90;;;;;;2089826;28;20044;-72
2023/08/09 04:10:13;;;;;;;15.20;13.63;;;16.60;99.90;;;;;;2091224;28;20535;-72
2023/08/09 04:11:14;;;;;;;14.15;12.73;;;16.60;99.90;;;;;;2091196;28;20120;-72
2023/08/09 04:12:14;;;;;;;14.00;12.70;;;16.60;99.90;;;;;;2093115;28;20028;-72
2023/08/09 04:13:15;;;;;;;17.15;13.40;;;16.60;99.90;;;;;;2090939;28;20032;-72
2023/08/09 04:14:15;;;;;;;14.63;13.23;;;16.60;99.90;;;;;;2089894;28;20033;-72
2023/08/09 04:15:16;;;;;;;13.15;11.90;;;16.60;99.90;;;;;;2089377;28;20021;-72
2023/08/09 04:16:18;;;;;;;15.18;13.68;;;16.60;99.90;;;;;;2091785;28;20045;-72
2023/08/09 04:17:18;;;;;;;11.57;10.43;;;16.60;99.90;;;;;;2090724;28;20033;-72
2023/08/09 04:18:19;;;;;;;11.60;10.30;;;16.60;99.90;;;;;;2091017;28;20051;-72
2023/08/09 04:19:19;;;;;;;12.43;11.23;;;16.60;99.90;;;;;;2088626;28;20440;-72
2023/08/09 04:20:20;;;;;;;10.63;9.57;;;16.60;99.90;;;;;;2090565;28;20029;-72
2023/08/09 04:21:20;;;;;;;12.35;11.02;;;16.60;99.90;;;;;;2091658;28;20024;-73
2023/08/09 04:22:21;;;;;;;12.80;11.63;;;16.60;99.90;;;;;;2091407;28;20025;-72
2023/08/09 04:23:22;;;;;;;14.38;12.85;;;16.60;99.90;;;;;;2091543;28;20025;-72
2023/08/09 04:24:22;;;;;;;13.10;11.90;;;16.60;99.90;;;;;;2091479;28;20021;-72
2023/08/09 04:25:23;;;;;;;13.57;12.23;;;16.60;99.90;;;;;;2090139;28;20036;-72
2023/08/09 04:26:23;;;;;;;13.48;12.18;;;16.60;99.90;;;;;;2091987;28;20541;-72
2023/08/09 04:27:24;;;;;;;12.35;11.15;;;16.60;99.90;;;;;;2089725;28;20032;-72
2023/08/09 04:28:25;;;;;;;13.35;12.00;;;16.60;99.90;;;;;;2091520;28;20043;-72
2023/08/09 04:29:25;;;;;;;11.38;10.23;;;16.60;99.90;;;;;;2090136;28;20063;-72
2023/08/09 04:30:26;;;;;;;12.32;11.20;;;16.60;99.90;;;;;;2089750;28;20043;-72
2023/08/09 04:31:26;;;;;;;14.23;12.70;;;16.60;99.90;;;;;;2089101;28;20091;-72
2023/08/09 04:32:27;;;;;;;12.70;11.40;;;16.60;99.90;;;;;;2090338;28;20028;-72
2023/08/09 04:33:27;;;;;;;11.57;10.48;;;16.60;99.90;;;;;;2091410;28;20614;-72
2023/08/09 04:34:29;;;;;;;12.18;10.95;;;16.70;99.90;;;;;;2091035;28;20024;-72
2023/08/09 04:35:33;;;;;;;11.65;10.60;;;16.70;99.90;;;;;;2089687;28;20479;-72
2023/08/09 04:36:33;;;;;;;13.82;12.35;;;16.70;99.90;;;;;;2090766;28;20025;-72
2023/08/09 04:37:34;;;;;;;15.60;14.13;;;16.70;99.90;;;;;;2089649;28;20044;-72
2023/08/09 04:38:35;;;;;;;14.63;13.02;;;16.70;99.90;;;;;;2090799;28;20063;-72
2023/08/09 04:39:35;;;;;;;13.27;11.80;;;16.70;99.90;;;;;;2090405;28;20045;-72
2023/08/09 04:40:36;;;;;;;13.55;12.25;;;16.70;99.90;;;;;;2089848;28;20036;-72
2023/08/09 04:41:36;;;;;;;14.85;13.43;;;16.70;99.90;;;;;;2089321;28;20024;-72
2023/08/09 04:42:41;;;;;;;13.05;11.85;;;16.70;99.90;;;;;;2091100;28;20108;-72
2023/08/09 04:43:43;;;;;;;14.23;11.88;;;16.70;99.90;;;;;;2091500;28;20495;-72
2023/08/09 04:44:43;;;;;;;14.82;13.32;;;16.70;99.90;;;;;;2091639;28;20029;-72
2023/08/09 04:45:44;;;;;;;14.88;13.48;;;16.70;99.90;;;;;;2090600;28;20841;-72
2023/08/09 04:46:45;;;;;;;11.05;9.93;;;16.70;99.90;;;;;;2089254;28;20466;-72
2023/08/09 04:47:47;;;;;;;14.70;13.20;;;16.70;99.90;;;;;;2089851;28;20108;-72
2023/08/09 04:48:47;;;;;;;12.10;10.98;;;16.70;99.90;;;;;;2094154;28;20105;-72
2023/08/09 04:49:48;;;;;;;12.50;11.40;;;16.70;99.90;;;;;;2094229;28;20041;-72
2023/08/09 04:50:48;;;;;;;11.60;10.50;;;16.70;99.90;;;;;;2089177;28;20454;-72
2023/08/09 04:51:49;;;;;;;14.80;13.43;;;16.70;99.90;;;;;;2091777;28;20029;-72
2023/08/09 04:52:50;;;;;;;13.73;12.45;;;16.70;99.90;;;;;;2091923;28;20033;-72
2023/08/09 04:53:51;;;;;;;12.48;11.20;;;16.80;99.90;;;;;;2090215;28;20029;-72
2023/08/09 04:54:51;;;;;;;14.13;12.70;;;16.70;99.90;;;;;;2090565;28;20060;-72
2023/08/09 04:55:52;;;;;;;15.70;14.02;;;16.80;99.90;;;;;;2089104;28;20017;-72
2023/08/09 04:56:52;;;;;;;15.15;13.63;;;16.80;99.90;;;;;;2091566;28;20021;-72
2023/08/09 04:57:53;;;;;;;14.02;12.52;;;16.70;99.90;;;;;;2088894;28;20021;-72
2023/08/09 04:58:53;;;;;;;15.40;13.77;;;16.80;99.90;;;;;;2090779;28;20342;-72
2023/08/09 04:59:54;;;;;;;10.63;9.57;;;16.80;99.90;;;;;;2089311;28;20029;-72
2023/08/09 05:00:55;;;;;;;10.55;9.55;;;16.70;99.90;;;;;;2091194;28;20082;-72
2023/08/09 05:01:55;;;;;;;13.32;12.02;;;16.80;99.90;;;;;;2089978;28;20036;-72
2023/08/09 05:02:56;;;;;;;14.02;12.50;;;16.80;99.90;;;;;;2088920;28;20115;-72
2023/08/09 05:03:56;;;;;;;16.65;13.32;;;16.80;99.90;;;;;;2089826;28;20523;-72
2023/08/09 05:04:57;;;;;;;15.27;13.68;;;16.80;99.90;;;;;;2088428;28;20029;-72
2023/08/09 05:05:57;;;;;;;13.63;12.18;;;16.80;99.90;;;;;;2087959;28;20053;-72
2023/08/09 05:06:59;;;;;;;15.40;13.77;;;16.80;99.90;;;;;;2090840;28;20025;-72
2023/08/09 05:08:00;;;;;;;13.13;11.82;;;16.80;99.90;;;;;;2089387;28;20079;-72
2023/08/09 05:09:01;;;;;;;11.75;10.45;;;16.80;99.90;;;;;;2090518;28;20765;-72
2023/08/09 05:10:02;;;;;;;16.67;14.57;;;16.80;99.90;;;;;;2090335;28;20037;-72
2023/08/09 05:11:03;;;;;;;16.40;14.75;;;16.80;99.90;;;;;;2089464;28;20025;-72
2023/08/09 05:12:03;;;;;;;13.35;12.00;;;16.80;99.90;;;;;;2089888;28;20037;-72
2023/08/09 05:13:04;;;;;;;17.10;14.77;;;16.90;99.90;;;;;;2089043;28;20021;-72
2023/08/09 05:14:05;;;;;;;11.75;10.60;;;16.90;99.90;;;;;;2089007;28;20078;-72
2023/08/09 05:15:06;;;;;;;18.52;14.05;;;16.80;99.90;;;;;;2089346;28;20119;-72
2023/08/09 05:16:06;;;;;;;15.30;13.70;;;16.90;99.90;;;;;;2089648;28;20025;-72